sensor_id;sensor_type;location;lat;lon;timestamp;temperature;humidity
35127;DHT22;21300;52.006;5.798;2024-01-07T00:00:34;0.60;99.90
35127;DHT22;21300;52.006;5.798;2024-01-07T00:03:00;0.60;99.90
35127;DHT22;21300;52.006;5.798;2024-01-07T00:05:26;0.60;99.90
35127;DHT22;21300;52.006;5.798;2024-01-07T00:07:51;0.60;99.90
35127;DHT22;21300;52.006;5.798;2024-01-07T00:10:17;0.60;99.90
35127;DHT22;21300;52.006;5.798;2024-01-07T00:12:43;0.60;99.90
35127;DHT22;21300;52.006;5.798;2024-01-07T00:15:09;0.60;99.90
35127;DHT22;21300;52.006;5.798;2024-01-07T00:17:35;0.60;99.90
35127;DHT22;21300;52.006;5.798;2024-01-07T00:20:01;0.60;99.90
35127;DHT22;21300;52.006;5.798;2024-01-07T00:22:26;0.60;99.90
35127;DHT22;21300;52.006;5.798;2024-01-07T00:24:52;0.60;99.90
35127;DHT22;21300;52.006;5.798;2024-01-07T00:27:17;0.60;99.90
35127;DHT22;21300;52.006;5.798;2024-01-07T00:29:43;0.60;99.90
35127;DHT22;21300;52.006;5.798;2024-01-07T00:32:09;0.50;99.90
35127;DHT22;21300;52.006;5.798;2024-01-07T00:34:34;0.60;99.90
35127;DHT22;21300;52.006;5.798;2024-01-07T00:37:00;0.60;99.90
35127;DHT22;21300;52.006;5.798;2024-01-07T00:39:25;0.60;99.90
35127;DHT22;21300;52.006;5.798;2024-01-07T00:41:51;0.60;99.90
35127;DHT22;21300;52.006;5.798;2024-01-07T00:44:16;0.60;99.90
35127;DHT22;21300;52.006;5.798;2024-01-07T00:46:42;0.60;99.90
35127;DHT22;21300;52.006;5.798;2024-01-07T00:49:08;0.60;99.90
35127;DHT22;21300;52.006;5.798;2024-01-07T00:51:33;0.60;99.90
35127;DHT22;21300;52.006;5.798;2024-01-07T00:53:59;0.60;99.90
35127;DHT22;21300;52.006;5.798;2024-01-07T00:56:28;0.60;99.90
35127;DHT22;21300;52.006;5.798;2024-01-07T00:58:53;0.60;99.90
35127;DHT22;21300;52.006;5.798;2024-01-07T01:01:19;0.60;99.90
35127;DHT22;21300;52.006;5.798;2024-01-07T01:03:45;0.60;99.90
35127;DHT22;21300;52.006;5.798;2024-01-07T01:06:11;0.60;99.90
35127;DHT22;21300;52.006;5.798;2024-01-07T01:08:37;0.60;99.90
35127;DHT22;21300;52.006;5.798;2024-01-07T01:11:02;0.60;99.90
35127;DHT22;21300;52.006;5.798;2024-01-07T01:13:28;0.60;99.90
35127;DHT22;21300;52.006;5.798;2024-01-07T01:15:53;0.60;99.90
35127;DHT22;21300;52.006;5.798;2024-01-07T01:18:20;0.60;99.90
35127;DHT22;21300;52.006;5.798;2024-01-07T01:20:46;0.70;99.90
35127;DHT22;21300;52.006;5.798;2024-01-07T01:23:11;0.60;99.90
35127;DHT22;21300;52.006;5.798;2024-01-07T01:25:37;0.60;99.90
35127;DHT22;21300;52.006;5.798;2024-01-07T01:28:05;0.60;99.90
35127;DHT22;21300;52.006;5.798;2024-01-07T01:30:30;0.70;99.90
35127;DHT22;21300;52.006;5.798;2024-01-07T01:32:57;0.60;99.90
35127;DHT22;21300;52.006;5.798;2024-01-07T01:35:23;0.60;99.90
35127;DHT22;21300;52.006;5.798;2024-01-07T01:37:48;0.60;99.90
35127;DHT22;21300;52.006;5.798;2024-01-07T01:40:16;0.60;99.90
35127;DHT22;21300;52.006;5.798;2024-01-07T01:42:45;0.60;99.90
35127;DHT22;21300;52.006;5.798;2024-01-07T01:45:10;0.60;99.90
35127;DHT22;21300;52.006;5.798;2024-01-07T01:47:36;0.60;99.90
35127;DHT22;21300;52.006;5.798;2024-01-07T01:50:03;0.60;99.90
35127;DHT22;21300;52.006;5.798;2024-01-07T01:52:28;0.60;99.90
35127;DHT22;21300;52.006;5.798;2024-01-07T01:54:54;0.60;99.90
35127;DHT22;21300;52.006;5.798;2024-01-07T01:57:21;0.60;99.90
35127;DHT22;21300;52.006;5.798;2024-01-07T01:59:48;0.60;99.90
35127;DHT22;21300;52.006;5.798;2024-01-07T02:02:14;0.50;99.90
35127;DHT22;21300;52.006;5.798;2024-01-07T02:04:40;0.50;99.90
35127;DHT22;21300;52.006;5.798;2024-01-07T02:07:05;0.60;99.90
35127;DHT22;21300;52.006;5.798;2024-01-07T02:09:31;0.50;99.90
35127;DHT22;21300;52.006;5.798;2024-01-07T02:12:03;0.50;99.90
35127;DHT22;21300;52.006;5.798;2024-01-07T02:14:29;0.50;99.90
35127;DHT22;21300;52.006;5.798;2024-01-07T02:16:55;0.50;99.90
35127;DHT22;21300;52.006;5.798;2024-01-07T02:19:21;0.50;99.90
35127;DHT22;21300;52.006;5.798;2024-01-07T02:21:49;0.50;99.90
35127;DHT22;21300;52.006;5.798;2024-01-07T02:24:16;0.50;99.90
35127;DHT22;21300;52.006;5.798;2024-01-07T02:26:41;0.50;99.90
35127;DHT22;21300;52.006;5.798;2024-01-07T02:29:07;0.50;99.90
35127;DHT22;21300;52.006;5.798;2024-01-07T02:31:32;0.50;99.90
35127;DHT22;21300;52.006;5.798;2024-01-07T02:33:58;0.50;99.90
35127;DHT22;21300;52.006;5.798;2024-01-07T02:36:24;0.50;99.90
35127;DHT22;21300;52.006;5.798;2024-01-07T02:38:49;0.50;99.90
35127;DHT22;21300;52.006;5.798;2024-01-07T02:41:15;0.40;99.90
35127;DHT22;21300;52.006;5.798;2024-01-07T02:43:40;0.40;99.90
35127;DHT22;21300;52.006;5.798;2024-01-07T02:46:07;0.40;99.90
35127;DHT22;21300;52.006;5.798;2024-01-07T02:48:33;0.40;99.90
35127;DHT22;21300;52.006;5.798;2024-01-07T02:50:58;0.40;99.90
35127;DHT22;21300;52.006;5.798;2024-01-07T02:53:24;0.40;99.90
35127;DHT22;21300;52.006;5.798;2024-01-07T02:55:49;0.40;99.90
35127;DHT22;21300;52.006;5.798;2024-01-07T02:58:15;0.40;99.90
35127;DHT22;21300;52.006;5.798;2024-01-07T03:00:41;0.40;99.90
35127;DHT22;21300;52.006;5.798;2024-01-07T03:03:06;0.40;99.90
35127;DHT22;21300;52.006;5.798;2024-01-07T03:05:32;0.40;99.90
35127;DHT22;21300;52.006;5.798;2024-01-07T03:07:59;0.40;99.90
35127;DHT22;21300;52.006;5.798;2024-01-07T03:10:25;0.40;99.90
35127;DHT22;21300;52.006;5.798;2024-01-07T03:12:51;0.40;99.90
35127;DHT22;21300;52.006;5.798;2024-01-07T03:15:17;0.40;99.90
35127;DHT22;21300;52.006;5.798;2024-01-07T03:17:42;0.40;99.90
35127;DHT22;21300;52.006;5.798;2024-01-07T03:20:09;0.40;99.90
35127;DHT22;21300;52.006;5.798;2024-01-07T03:22:35;0.50;99.90
35127;DHT22;21300;52.006;5.798;2024-01-07T03:25:01;0.50;99.90
35127;DHT22;21300;52.006;5.798;2024-01-07T03:27:26;0.40;99.90
35127;DHT22;21300;52.006;5.798;2024-01-07T03:29:52;0.40;99.90
35127;DHT22;21300;52.006;5.798;2024-01-07T03:32:18;0.40;99.90
35127;DHT22;21300;52.006;5.798;2024-01-07T03:34:43;0.40;99.90
35127;DHT22;21300;52.006;5.798;2024-01-07T03:37:09;0.40;99.90
35127;DHT22;21300;52.006;5.798;2024-01-07T03:39:34;0.40;99.90
35127;DHT22;21300;52.006;5.798;2024-01-07T03:42:00;0.40;99.90
35127;DHT22;21300;52.006;5.798;2024-01-07T03:44:26;0.30;99.90
35127;DHT22;21300;52.006;5.798;2024-01-07T03:46:52;0.40;99.90
35127;DHT22;21300;52.006;5.798;2024-01-07T03:49:17;0.30;99.90
35127;DHT22;21300;52.006;5.798;2024-01-07T03:51:43;0.30;99.90
35127;DHT22;21300;52.006;5.798;2024-01-07T03:54:09;0.30;99.90
35127;DHT22;21300;52.006;5.798;2024-01-07T03:56:35;0.30;99.90
35127;DHT22;21300;52.006;5.798;2024-01-07T03:59:00;0.30;99.90
35127;DHT22;21300;52.006;5.798;2024-01-07T04:01:26;0.30;99.90
35127;DHT22;21300;52.006;5.798;2024-01-07T04:03:51;0.20;99.90
35127;DHT22;21300;52.006;5.798;2024-01-07T04:06:17;0.30;99.90
35127;DHT22;21300;52.006;5.798;2024-01-07T04:08:43;0.20;99.90
35127;DHT22;21300;52.006;5.798;2024-01-07T04:11:08;0.30;99.90
35127;DHT22;21300;52.006;5.798;2024-01-07T04:13:34;0.20;99.90
35127;DHT22;21300;52.006;5.798;2024-01-07T04:16:00;0.30;99.90
35127;DHT22;21300;52.006;5.798;2024-01-07T04:18:25;0.30;99.90
35127;DHT22;21300;52.006;5.798;2024-01-07T04:20:51;0.20;99.90
35127;DHT22;21300;52.006;5.798;2024-01-07T04:23:16;0.20;99.90
35127;DHT22;21300;52.006;5.798;2024-01-07T04:25:42;0.20;99.90
35127;DHT22;21300;52.006;5.798;2024-01-07T04:28:09;0.20;99.90
35127;DHT22;21300;52.006;5.798;2024-01-07T04:30:35;0.20;99.90
35127;DHT22;21300;52.006;5.798;2024-01-07T04:33:01;0.20;99.90
35127;DHT22;21300;52.006;5.798;2024-01-07T04:35:26;0.20;99.90
35127;DHT22;21300;52.006;5.798;2024-01-07T04:37:52;0.20;99.90
35127;DHT22;21300;52.006;5.798;2024-01-07T04:40:18;0.20;99.90
35127;DHT22;21300;52.006;5.798;2024-01-07T04:42:43;0.20;99.90
35127;DHT22;21300;52.006;5.798;2024-01-07T04:45:09;0.20;99.90
35127;DHT22;21300;52.006;5.798;2024-01-07T04:47:34;0.20;99.90
35127;DHT22;21300;52.006;5.798;2024-01-07T04:50:00;0.20;99.90
35127;DHT22;21300;52.006;5.798;2024-01-07T04:52:26;0.20;99.90
35127;DHT22;21300;52.006;5.798;2024-01-07T04:54:52;0.20;99.90
35127;DHT22;21300;52.006;5.798;2024-01-07T04:57:18;0.20;99.90
35127;DHT22;21300;52.006;5.798;2024-01-07T04:59:45;0.10;99.90
35127;DHT22;21300;52.006;5.798;2024-01-07T05:02:10;0.20;99.90
35127;DHT22;21300;52.006;5.798;2024-01-07T05:04:36;0.20;99.90
35127;DHT22;21300;52.006;5.798;2024-01-07T05:07:02;0.20;99.90
35127;DHT22;21300;52.006;5.798;2024-01-07T05:09:28;0.20;99.90
35127;DHT22;21300;52.006;5.798;2024-01-07T05:11:54;0.20;99.90
35127;DHT22;21300;52.006;5.798;2024-01-07T05:14:19;0.20;99.90
35127;DHT22;21300;52.006;5.798;2024-01-07T05:16:45;0.10;99.90
35127;DHT22;21300;52.006;5.798;2024-01-07T05:19:11;0.20;99.90
35127;DHT22;21300;52.006;5.798;2024-01-07T05:21:37;0.20;99.90
35127;DHT22;21300;52.006;5.798;2024-01-07T05:24:02;0.10;99.90
35127;DHT22;21300;52.006;5.798;2024-01-07T05:26:28;0.10;99.90
35127;DHT22;21300;52.006;5.798;2024-01-07T05:28:54;0.10;99.90
35127;DHT22;21300;52.006;5.798;2024-01-07T05:31:28;0.10;99.90
35127;DHT22;21300;52.006;5.798;2024-01-07T05:33:54;0.10;99.90
35127;DHT22;21300;52.006;5.798;2024-01-07T05:36:19;0.10;99.90
35127;DHT22;21300;52.006;5.798;2024-01-07T05:38:45;0.10;99.90
35127;DHT22;21300;52.006;5.798;2024-01-07T05:41:11;0.10;99.90
35127;DHT22;21300;52.006;5.798;2024-01-07T05:43:36;0.10;99.90
35127;DHT22;21300;52.006;5.798;2024-01-07T05:46:02;0.10;99.90
35127;DHT22;21300;52.006;5.798;2024-01-07T05:48:29;0.00;99.90
35127;DHT22;21300;52.006;5.798;2024-01-07T05:50:54;0.10;99.90
35127;DHT22;21300;52.006;5.798;2024-01-07T05:53:20;0.00;99.90
35127;DHT22;21300;52.006;5.798;2024-01-07T05:55:46;0.10;99.90
35127;DHT22;21300;52.006;5.798;2024-01-07T05:58:11;0.00;99.90
35127;DHT22;21300;52.006;5.798;2024-01-07T06:00:38;0.10;99.90
35127;DHT22;21300;52.006;5.798;2024-01-07T06:03:03;0.00;99.90
35127;DHT22;21300;52.006;5.798;2024-01-07T06:05:29;0.00;99.90
35127;DHT22;21300;52.006;5.798;2024-01-07T06:07:55;0.00;99.90
35127;DHT22;21300;52.006;5.798;2024-01-07T06:10:21;0.10;99.90
35127;DHT22;21300;52.006;5.798;2024-01-07T06:12:46;0.00;99.90
35127;DHT22;21300;52.006;5.798;2024-01-07T06:15:12;0.10;99.90
35127;DHT22;21300;52.006;5.798;2024-01-07T06:17:37;0.10;99.90
35127;DHT22;21300;52.006;5.798;2024-01-07T06:20:04;0.10;99.90
35127;DHT22;21300;52.006;5.798;2024-01-07T06:22:31;0.00;99.90
35127;DHT22;21300;52.006;5.798;2024-01-07T06:24:56;0.10;99.90
35127;DHT22;21300;52.006;5.798;2024-01-07T06:27:22;0.00;99.90
35127;DHT22;21300;52.006;5.798;2024-01-07T06:29:48;0.00;99.90
35127;DHT22;21300;52.006;5.798;2024-01-07T06:32:13;0.00;99.90
35127;DHT22;21300;52.006;5.798;2024-01-07T06:34:39;0.00;99.90
35127;DHT22;21300;52.006;5.798;2024-01-07T06:37:04;0.00;99.90
35127;DHT22;21300;52.006;5.798;2024-01-07T06:39:34;0.00;99.90
35127;DHT22;21300;52.006;5.798;2024-01-07T06:42:00;-0.10;99.90
35127;DHT22;21300;52.006;5.798;2024-01-07T06:44:25;0.00;99.90
35127;DHT22;21300;52.006;5.798;2024-01-07T06:46:51;-0.10;99.90
35127;DHT22;21300;52.006;5.798;2024-01-07T06:49:19;0.00;99.90
35127;DHT22;21300;52.006;5.798;2024-01-07T06:51:45;-0.10;99.90
35127;DHT22;21300;52.006;5.798;2024-01-07T06:54:10;0.00;99.90
35127;DHT22;21300;52.006;5.798;2024-01-07T06:56:36;0.00;99.90
35127;DHT22;21300;52.006;5.798;2024-01-07T06:59:04;-0.10;99.90
35127;DHT22;21300;52.006;5.798;2024-01-07T07:01:30;-0.10;99.90
35127;DHT22;21300;52.006;5.798;2024-01-07T07:03:56;0.00;99.90
35127;DHT22;21300;52.006;5.798;2024-01-07T07:06:22;0.00;99.90
35127;DHT22;21300;52.006;5.798;2024-01-07T07:08:47;-0.10;99.90
35127;DHT22;21300;52.006;5.798;2024-01-07T07:11:13;-0.10;99.90
35127;DHT22;21300;52.006;5.798;2024-01-07T07:13:39;-0.10;99.90
35127;DHT22;21300;52.006;5.798;2024-01-07T07:16:05;-0.10;99.90
35127;DHT22;21300;52.006;5.798;2024-01-07T07:18:31;-0.10;99.90
35127;DHT22;21300;52.006;5.798;2024-01-07T07:20:56;-0.10;99.90
35127;DHT22;21300;52.006;5.798;2024-01-07T07:23:22;-0.10;99.90
35127;DHT22;21300;52.006;5.798;2024-01-07T07:25:47;-0.10;99.90
35127;DHT22;21300;52.006;5.798;2024-01-07T07:28:13;-0.10;99.90
35127;DHT22;21300;52.006;5.798;2024-01-07T07:30:39;-0.10;99.90
35127;DHT22;21300;52.006;5.798;2024-01-07T07:33:04;-0.10;99.90
35127;DHT22;21300;52.006;5.798;2024-01-07T07:35:30;-0.10;99.90
35127;DHT22;21300;52.006;5.798;2024-01-07T07:37:55;-0.10;99.90
35127;DHT22;21300;52.006;5.798;2024-01-07T07:40:21;-0.10;99.90
35127;DHT22;21300;52.006;5.798;2024-01-07T07:42:47;-0.10;99.90
35127;DHT22;21300;52.006;5.798;2024-01-07T07:45:12;-0.10;99.90
35127;DHT22;21300;52.006;5.798;2024-01-07T07:47:38;-0.10;99.90
35127;DHT22;21300;52.006;5.798;2024-01-07T07:50:07;-0.20;99.90
35127;DHT22;21300;52.006;5.798;2024-01-07T07:52:33;-0.10;99.90
35127;DHT22;21300;52.006;5.798;2024-01-07T07:54:58;-0.20;99.90
35127;DHT22;21300;52.006;5.798;2024-01-07T07:57:24;-0.10;99.90
35127;DHT22;21300;52.006;5.798;2024-01-07T07:59:50;-0.20;99.90
35127;DHT22;21300;52.006;5.798;2024-01-07T08:02:17;-0.20;99.90
35127;DHT22;21300;52.006;5.798;2024-01-07T08:04:43;-0.10;99.90
35127;DHT22;21300;52.006;5.798;2024-01-07T08:07:09;-0.20;99.90
35127;DHT22;21300;52.006;5.798;2024-01-07T08:09:36;-0.30;99.90
35127;DHT22;21300;52.006;5.798;2024-01-07T08:12:05;-0.20;99.90
35127;DHT22;21300;52.006;5.798;2024-01-07T08:14:32;-0.20;99.90
35127;DHT22;21300;52.006;5.798;2024-01-07T08:16:58;-0.30;99.90
35127;DHT22;21300;52.006;5.798;2024-01-07T08:19:23;-0.30;99.90
35127;DHT22;21300;52.006;5.798;2024-01-07T08:21:49;-0.30;99.90
35127;DHT22;21300;52.006;5.798;2024-01-07T08:24:14;-0.30;99.90
35127;DHT22;21300;52.006;5.798;2024-01-07T08:26:40;-0.30;99.90
35127;DHT22;21300;52.006;5.798;2024-01-07T08:29:06;-0.30;99.90
35127;DHT22;21300;52.006;5.798;2024-01-07T08:31:31;-0.40;99.90
35127;DHT22;21300;52.006;5.798;2024-01-07T08:33:57;-0.40;99.90
35127;DHT22;21300;52.006;5.798;2024-01-07T08:36:23;-0.30;99.90
35127;DHT22;21300;52.006;5.798;2024-01-07T08:38:49;-0.40;99.90
35127;DHT22;21300;52.006;5.798;2024-01-07T08:41:18;-0.40;99.90
35127;DHT22;21300;52.006;5.798;2024-01-07T08:43:44;-0.40;99.90
35127;DHT22;21300;52.006;5.798;2024-01-07T08:46:12;-0.40;99.90
35127;DHT22;21300;52.006;5.798;2024-01-07T08:48:39;-0.30;99.90
35127;DHT22;21300;52.006;5.798;2024-01-07T08:51:05;-0.40;99.90
35127;DHT22;21300;52.006;5.798;2024-01-07T08:53:31;-0.40;99.90
35127;DHT22;21300;52.006;5.798;2024-01-07T08:55:57;-0.40;99.90
35127;DHT22;21300;52.006;5.798;2024-01-07T08:58:22;-0.40;99.90
35127;DHT22;21300;52.006;5.798;2024-01-07T09:00:48;-0.40;99.90
35127;DHT22;21300;52.006;5.798;2024-01-07T09:03:14;-0.40;99.90
35127;DHT22;21300;52.006;5.798;2024-01-07T09:05:39;-0.40;99.90
35127;DHT22;21300;52.006;5.798;2024-01-07T09:08:05;-0.40;99.90
35127;DHT22;21300;52.006;5.798;2024-01-07T09:10:32;-0.40;99.90
35127;DHT22;21300;52.006;5.798;2024-01-07T09:12:59;-0.40;99.90
35127;DHT22;21300;52.006;5.798;2024-01-07T09:15:25;-0.50;99.90
35127;DHT22;21300;52.006;5.798;2024-01-07T09:17:51;-0.40;99.90
35127;DHT22;21300;52.006;5.798;2024-01-07T09:20:17;-0.50;99.90
35127;DHT22;21300;52.006;5.798;2024-01-07T09:22:42;-0.40;99.90
35127;DHT22;21300;52.006;5.798;2024-01-07T09:25:09;-0.40;99.90
35127;DHT22;21300;52.006;5.798;2024-01-07T09:27:35;-0.50;99.90
35127;DHT22;21300;52.006;5.798;2024-01-07T09:30:01;-0.40;99.90
35127;DHT22;21300;52.006;5.798;2024-01-07T09:32:26;-0.50;99.90
35127;DHT22;21300;52.006;5.798;2024-01-07T09:34:52;-0.50;99.90
35127;DHT22;21300;52.006;5.798;2024-01-07T09:37:19;-0.40;99.90
35127;DHT22;21300;52.006;5.798;2024-01-07T09:39:45;-0.50;99.90
35127;DHT22;21300;52.006;5.798;2024-01-07T09:42:16;-0.40;99.90
35127;DHT22;21300;52.006;5.798;2024-01-07T09:44:43;-0.40;99.90
35127;DHT22;21300;52.006;5.798;2024-01-07T09:47:13;-0.40;99.90
35127;DHT22;21300;52.006;5.798;2024-01-07T09:49:42;-0.40;99.90
35127;DHT22;21300;52.006;5.798;2024-01-07T09:52:10;-0.40;99.90
35127;DHT22;21300;52.006;5.798;2024-01-07T09:54:37;-0.40;99.90
35127;DHT22;21300;52.006;5.798;2024-01-07T09:57:07;-0.40;99.90
35127;DHT22;21300;52.006;5.798;2024-01-07T09:59:34;-0.40;99.90
35127;DHT22;21300;52.006;5.798;2024-01-07T10:02:00;-0.40;99.90
35127;DHT22;21300;52.006;5.798;2024-01-07T10:04:27;-0.40;99.90
35127;DHT22;21300;52.006;5.798;2024-01-07T10:06:53;-0.30;99.90
35127;DHT22;21300;52.006;5.798;2024-01-07T10:09:23;-0.30;99.90
35127;DHT22;21300;52.006;5.798;2024-01-07T10:11:51;-0.40;99.90
35127;DHT22;21300;52.006;5.798;2024-01-07T10:14:16;-0.30;99.90
35127;DHT22;21300;52.006;5.798;2024-01-07T10:16:42;-0.40;99.90
35127;DHT22;21300;52.006;5.798;2024-01-07T10:19:08;-0.30;99.90
35127;DHT22;21300;52.006;5.798;2024-01-07T10:21:34;-0.30;99.90
35127;DHT22;21300;52.006;5.798;2024-01-07T10:24:09;-0.30;99.90
35127;DHT22;21300;52.006;5.798;2024-01-07T10:26:39;-0.40;99.90
35127;DHT22;21300;52.006;5.798;2024-01-07T10:29:08;-0.30;99.90
35127;DHT22;21300;52.006;5.798;2024-01-07T10:31:34;-0.30;99.90
35127;DHT22;21300;52.006;5.798;2024-01-07T10:34:00;-0.30;99.90
35127;DHT22;21300;52.006;5.798;2024-01-07T10:36:26;-0.30;99.90
35127;DHT22;21300;52.006;5.798;2024-01-07T10:38:52;-0.30;99.90
35127;DHT22;21300;52.006;5.798;2024-01-07T10:41:21;-0.40;99.90
35127;DHT22;21300;52.006;5.798;2024-01-07T10:43:48;-0.30;99.90
35127;DHT22;21300;52.006;5.798;2024-01-07T10:46:15;-0.30;99.90
35127;DHT22;21300;52.006;5.798;2024-01-07T10:49:03;-0.30;99.90
35127;DHT22;21300;52.006;5.798;2024-01-07T10:51:34;-0.30;99.90
35127;DHT22;21300;52.006;5.798;2024-01-07T10:54:00;-0.20;99.90
35127;DHT22;21300;52.006;5.798;2024-01-07T10:56:45;-0.20;99.90
35127;DHT22;21300;52.006;5.798;2024-01-07T10:59:11;-0.20;99.90
35127;DHT22;21300;52.006;5.798;2024-01-07T11:01:36;-0.30;99.90
35127;DHT22;21300;52.006;5.798;2024-01-07T11:04:30;-0.30;99.90
35127;DHT22;21300;52.006;5.798;2024-01-07T11:10:29;-0.30;99.90
35127;DHT22;21300;52.006;5.798;2024-01-07T11:12:31;-0.30;99.90
35127;DHT22;21300;52.006;5.798;2024-01-07T11:14:57;-0.30;99.90
35127;DHT22;21300;52.006;5.798;2024-01-07T11:20:26;-0.30;99.90
35127;DHT22;21300;52.006;5.798;2024-01-07T11:22:52;-0.20;99.90
35127;DHT22;21300;52.006;5.798;2024-01-07T11:25:33;-0.20;99.90
35127;DHT22;21300;52.006;5.798;2024-01-07T11:28:03;-0.20;99.90
35127;DHT22;21300;52.006;5.798;2024-01-07T11:30:29;-0.10;99.90
35127;DHT22;21300;52.006;5.798;2024-01-07T11:32:59;-0.10;99.90
35127;DHT22;21300;52.006;5.798;2024-01-07T11:35:53;0.00;99.90
35127;DHT22;21300;52.006;5.798;2024-01-07T11:38:19;-0.10;99.90
35127;DHT22;21300;52.006;5.798;2024-01-07T11:40:46;-0.10;99.90
35127;DHT22;21300;52.006;5.798;2024-01-07T11:43:12;0.00;99.90
35127;DHT22;21300;52.006;5.798;2024-01-07T11:45:38;0.10;99.90
35127;DHT22;21300;52.006;5.798;2024-01-07T11:48:05;0.20;99.90
35127;DHT22;21300;52.006;5.798;2024-01-07T11:50:31;0.30;99.90
35127;DHT22;21300;52.006;5.798;2024-01-07T11:52:57;0.40;99.90
35127;DHT22;21300;52.006;5.798;2024-01-07T11:55:22;0.30;99.90
35127;DHT22;21300;52.006;5.798;2024-01-07T11:57:49;0.50;99.90
35127;DHT22;21300;52.006;5.798;2024-01-07T12:00:14;0.50;99.90
35127;DHT22;21300;52.006;5.798;2024-01-07T12:02:45;0.50;99.90
35127;DHT22;21300;52.006;5.798;2024-01-07T12:05:11;0.40;99.90
35127;DHT22;21300;52.006;5.798;2024-01-07T12:07:38;0.50;99.90
35127;DHT22;21300;52.006;5.798;2024-01-07T12:10:07;0.30;99.90
35127;DHT22;21300;52.006;5.798;2024-01-07T12:12:33;0.50;99.90
35127;DHT22;21300;52.006;5.798;2024-01-07T12:14:58;0.40;99.90
35127;DHT22;21300;52.006;5.798;2024-01-07T12:17:26;0.40;99.90
35127;DHT22;21300;52.006;5.798;2024-01-07T12:19:51;0.60;99.90
35127;DHT22;21300;52.006;5.798;2024-01-07T12:22:17;0.40;99.90
35127;DHT22;21300;52.006;5.798;2024-01-07T12:24:43;0.30;99.90
35127;DHT22;21300;52.006;5.798;2024-01-07T12:27:09;0.30;99.90
35127;DHT22;21300;52.006;5.798;2024-01-07T12:29:35;0.30;99.90
35127;DHT22;21300;52.006;5.798;2024-01-07T12:32:00;0.30;99.90
35127;DHT22;21300;52.006;5.798;2024-01-07T12:34:28;0.30;99.90
35127;DHT22;21300;52.006;5.798;2024-01-07T12:36:54;0.20;99.90
35127;DHT22;21300;52.006;5.798;2024-01-07T12:39:20;0.20;99.90
35127;DHT22;21300;52.006;5.798;2024-01-07T12:41:47;0.20;99.90
35127;DHT22;21300;52.006;5.798;2024-01-07T12:44:12;0.20;99.90
35127;DHT22;21300;52.006;5.798;2024-01-07T12:46:38;0.30;99.90
35127;DHT22;21300;52.006;5.798;2024-01-07T12:49:04;0.40;99.90
35127;DHT22;21300;52.006;5.798;2024-01-07T12:51:35;0.50;99.90
35127;DHT22;21300;52.006;5.798;2024-01-07T12:54:01;0.50;99.90
35127;DHT22;21300;52.006;5.798;2024-01-07T12:56:28;0.70;99.90
35127;DHT22;21300;52.006;5.798;2024-01-07T12:58:54;0.80;99.90
35127;DHT22;21300;52.006;5.798;2024-01-07T13:01:20;0.70;99.90
35127;DHT22;21300;52.006;5.798;2024-01-07T13:03:46;0.60;99.90
35127;DHT22;21300;52.006;5.798;2024-01-07T13:06:11;0.50;99.90
35127;DHT22;21300;52.006;5.798;2024-01-07T13:08:37;0.40;99.90
35127;DHT22;21300;52.006;5.798;2024-01-07T13:11:03;0.30;99.90
35127;DHT22;21300;52.006;5.798;2024-01-07T13:13:28;0.30;99.90
35127;DHT22;21300;52.006;5.798;2024-01-07T13:15:54;0.20;99.90
35127;DHT22;21300;52.006;5.798;2024-01-07T13:18:22;0.20;99.90
35127;DHT22;21300;52.006;5.798;2024-01-07T13:20:47;0.20;99.90
35127;DHT22;21300;52.006;5.798;2024-01-07T13:23:13;0.10;99.90
35127;DHT22;21300;52.006;5.798;2024-01-07T13:25:39;0.20;99.90
35127;DHT22;21300;52.006;5.798;2024-01-07T13:28:04;0.20;99.90
35127;DHT22;21300;52.006;5.798;2024-01-07T13:30:30;0.20;99.90
35127;DHT22;21300;52.006;5.798;2024-01-07T13:32:56;0.20;99.90
35127;DHT22;21300;52.006;5.798;2024-01-07T13:35:22;0.20;99.90
35127;DHT22;21300;52.006;5.798;2024-01-07T13:37:48;0.20;99.90
35127;DHT22;21300;52.006;5.798;2024-01-07T13:40:13;0.10;99.90
35127;DHT22;21300;52.006;5.798;2024-01-07T13:42:40;0.00;99.90
35127;DHT22;21300;52.006;5.798;2024-01-07T13:45:05;0.00;99.90
35127;DHT22;21300;52.006;5.798;2024-01-07T13:47:31;0.00;99.90
35127;DHT22;21300;52.006;5.798;2024-01-07T13:49:57;0.00;99.90
35127;DHT22;21300;52.006;5.798;2024-01-07T13:52:23;0.00;99.90
35127;DHT22;21300;52.006;5.798;2024-01-07T13:54:48;0.00;99.90
35127;DHT22;21300;52.006;5.798;2024-01-07T13:57:14;0.00;99.90
35127;DHT22;21300;52.006;5.798;2024-01-07T13:59:40;-0.10;99.90
35127;DHT22;21300;52.006;5.798;2024-01-07T14:02:07;-0.10;99.90
35127;DHT22;21300;52.006;5.798;2024-01-07T14:04:33;-0.10;99.90
35127;DHT22;21300;52.006;5.798;2024-01-07T14:06:59;-0.10;99.90
35127;DHT22;21300;52.006;5.798;2024-01-07T14:09:24;-0.10;99.90
35127;DHT22;21300;52.006;5.798;2024-01-07T14:11:51;-0.10;99.90
35127;DHT22;21300;52.006;5.798;2024-01-07T14:14:17;-0.10;99.90
35127;DHT22;21300;52.006;5.798;2024-01-07T14:16:44;-0.10;99.90
35127;DHT22;21300;52.006;5.798;2024-01-07T14:19:10;-0.10;99.90
35127;DHT22;21300;52.006;5.798;2024-01-07T14:21:36;0.00;99.90
35127;DHT22;21300;52.006;5.798;2024-01-07T14:24:02;0.00;99.90
35127;DHT22;21300;52.006;5.798;2024-01-07T14:26:28;0.00;99.90
35127;DHT22;21300;52.006;5.798;2024-01-07T14:28:54;0.00;99.90
35127;DHT22;21300;52.006;5.798;2024-01-07T14:31:20;0.00;99.90
35127;DHT22;21300;52.006;5.798;2024-01-07T14:33:45;0.00;99.90
35127;DHT22;21300;52.006;5.798;2024-01-07T14:36:12;-0.10;99.90
35127;DHT22;21300;52.006;5.798;2024-01-07T14:38:44;-0.10;99.90
35127;DHT22;21300;52.006;5.798;2024-01-07T14:41:11;-0.10;99.90
35127;DHT22;21300;52.006;5.798;2024-01-07T14:43:37;-0.20;99.90
35127;DHT22;21300;52.006;5.798;2024-01-07T14:46:03;-0.20;99.90
35127;DHT22;21300;52.006;5.798;2024-01-07T14:48:29;-0.10;99.90
35127;DHT22;21300;52.006;5.798;2024-01-07T14:50:55;-0.20;99.90
35127;DHT22;21300;52.006;5.798;2024-01-07T14:53:21;-0.20;99.90
35127;DHT22;21300;52.006;5.798;2024-01-07T14:55:46;-0.10;99.90
35127;DHT22;21300;52.006;5.798;2024-01-07T14:58:12;-0.20;99.90
35127;DHT22;21300;52.006;5.798;2024-01-07T15:00:38;-0.20;99.90
35127;DHT22;21300;52.006;5.798;2024-01-07T15:03:04;-0.20;99.90
35127;DHT22;21300;52.006;5.798;2024-01-07T15:05:30;-0.20;99.90
35127;DHT22;21300;52.006;5.798;2024-01-07T15:07:56;-0.30;99.90
35127;DHT22;21300;52.006;5.798;2024-01-07T15:10:21;-0.20;99.90
35127;DHT22;21300;52.006;5.798;2024-01-07T15:12:47;-0.30;99.90
35127;DHT22;21300;52.006;5.798;2024-01-07T15:15:15;-0.30;99.90
35127;DHT22;21300;52.006;5.798;2024-01-07T15:17:41;-0.40;99.90
35127;DHT22;21300;52.006;5.798;2024-01-07T15:20:08;-0.40;99.90
35127;DHT22;21300;52.006;5.798;2024-01-07T15:22:34;-0.40;99.90
35127;DHT22;21300;52.006;5.798;2024-01-07T15:24:59;-0.40;99.90
35127;DHT22;21300;52.006;5.798;2024-01-07T15:27:25;-0.50;99.90
35127;DHT22;21300;52.006;5.798;2024-01-07T15:29:50;-0.50;99.90
35127;DHT22;21300;52.006;5.798;2024-01-07T15:32:16;-0.50;99.90
35127;DHT22;21300;52.006;5.798;2024-01-07T15:34:41;-0.60;99.90
35127;DHT22;21300;52.006;5.798;2024-01-07T15:37:07;-0.60;99.90
35127;DHT22;21300;52.006;5.798;2024-01-07T15:39:33;-0.70;99.90